sensor_id;sensor_type;location;lat;lon;timestamp;pressure;altitude;pressure_sealevel;temperature;humidity
5651;BME280;40241;52.684;9.758;2023-06-04T00:01:49;101948.75;;;13.60;38.80
5651;BME280;40241;52.684;9.758;2023-06-04T00:04:14;101959.28;;;13.56;38.80
5651;BME280;40241;52.684;9.758;2023-06-04T00:06:40;101959.16;;;13.50;39.19
5651;BME280;40241;52.684;9.758;2023-06-04T00:09:05;101952.03;;;13.44;39.21
5651;BME280;40241;52.684;9.758;2023-06-04T00:11:30;101949.94;;;13.39;39.05
5651;BME280;40241;52.684;9.758;2023-06-04T00:13:59;101952.44;;;13.37;39.40
5651;BME280;40241;52.684;9.758;2023-06-04T00:16:24;101947.59;;;13.32;39.24
5651;BME280;40241;52.684;9.758;2023-06-04T00:18:49;101942.53;;;13.30;39.44
5651;BME280;40241;52.684;9.758;2023-06-04T00:21:14;101945.22;;;13.25;39.48
5651;BME280;40241;52.684;9.758;2023-06-04T00:23:40;101937.88;;;13.22;39.78
5651;BME280;40241;52.684;9.758;2023-06-04T00:26:05;101941.13;;;13.20;39.56
5651;BME280;40241;52.684;9.758;2023-06-04T00:28:30;101947.88;;;13.19;39.72
5651;BME280;40241;52.684;9.758;2023-06-04T00:30:56;101939.81;;;13.16;39.78
5651;BME280;40241;52.684;9.758;2023-06-04T00:33:21;101944.56;;;13.15;39.68
5651;BME280;40241;52.684;9.758;2023-06-04T00:35:46;101940.28;;;13.14;39.85
5651;BME280;40241;52.684;9.758;2023-06-04T00:38:12;101942.78;;;13.12;39.98
5651;BME280;40241;52.684;9.758;2023-06-04T00:40:37;101944.47;;;13.10;40.15
5651;BME280;40241;52.684;9.758;2023-06-04T00:43:02;101933.16;;;13.08;40.06
5651;BME280;40241;52.684;9.758;2023-06-04T00:45:28;101944.66;;;13.06;40.21
5651;BME280;40241;52.684;9.758;2023-06-04T00:47:56;101940.25;;;13.00;40.10
5651;BME280;40241;52.684;9.758;2023-06-04T00:50:21;101939.50;;;12.99;40.05
5651;BME280;40241;52.684;9.758;2023-06-04T00:52:48;101935.41;;;12.95;40.16
5651;BME280;40241;52.684;9.758;2023-06-04T00:55:14;101944.84;;;12.88;40.31
5651;BME280;40241;52.684;9.758;2023-06-04T00:57:43;101946.00;;;12.82;40.29
5651;BME280;40241;52.684;9.758;2023-06-04T01:00:09;101948.66;;;12.76;40.50
5651;BME280;40241;52.684;9.758;2023-06-04T01:02:38;101943.31;;;12.72;40.77
5651;BME280;40241;52.684;9.758;2023-06-04T01:05:14;101946.44;;;12.65;40.68
5651;BME280;40241;52.684;9.758;2023-06-04T01:07:42;101942.56;;;12.57;40.78
5651;BME280;40241;52.684;9.758;2023-06-04T01:10:12;101935.31;;;12.60;40.57
5651;BME280;40241;52.684;9.758;2023-06-04T01:12:41;101939.03;;;12.57;40.99
5651;BME280;40241;52.684;9.758;2023-06-04T01:15:07;101953.03;;;12.53;40.77
5651;BME280;40241;52.684;9.758;2023-06-04T01:17:39;101941.69;;;12.51;41.30
5651;BME280;40241;52.684;9.758;2023-06-04T01:20:17;101941.00;;;12.42;41.65
5651;BME280;40241;52.684;9.758;2023-06-04T01:27:56;101950.69;;;12.23;41.37
5651;BME280;40241;52.684;9.758;2023-06-04T01:30:28;101957.91;;;12.20;41.17
5651;BME280;40241;52.684;9.758;2023-06-04T01:32:55;101947.50;;;12.15;41.16
5651;BME280;40241;52.684;9.758;2023-06-04T01:35:21;101933.41;;;12.13;41.08
5651;BME280;40241;52.684;9.758;2023-06-04T01:37:47;101934.53;;;12.07;41.22
5651;BME280;40241;52.684;9.758;2023-06-04T01:40:12;101932.72;;;12.03;41.28
5651;BME280;40241;52.684;9.758;2023-06-04T01:42:38;101930.03;;;11.94;41.32
5651;BME280;40241;52.684;9.758;2023-06-04T01:45:04;101929.44;;;11.90;41.50
5651;BME280;40241;52.684;9.758;2023-06-04T01:47:29;101930.88;;;11.86;41.37
5651;BME280;40241;52.684;9.758;2023-06-04T01:49:55;101925.81;;;11.84;41.36
5651;BME280;40241;52.684;9.758;2023-06-04T01:52:20;101928.47;;;11.79;41.54
5651;BME280;40241;52.684;9.758;2023-06-04T01:54:46;101933.41;;;11.75;41.60
5651;BME280;40241;52.684;9.758;2023-06-04T01:57:14;101929.56;;;11.72;41.77
5651;BME280;40241;52.684;9.758;2023-06-04T01:59:39;101921.31;;;11.63;41.83
5651;BME280;40241;52.684;9.758;2023-06-04T02:02:06;101919.03;;;11.62;41.91
5651;BME280;40241;52.684;9.758;2023-06-04T02:04:31;101917.81;;;11.63;41.77
5651;BME280;40241;52.684;9.758;2023-06-04T02:06:57;101916.44;;;11.58;41.83
5651;BME280;40241;52.684;9.758;2023-06-04T02:09:25;101921.84;;;11.53;41.89
5651;BME280;40241;52.684;9.758;2023-06-04T02:11:51;101924.94;;;11.46;42.15
5651;BME280;40241;52.684;9.758;2023-06-04T02:14:16;101916.25;;;11.38;41.92
5651;BME280;40241;52.684;9.758;2023-06-04T02:16:41;101924.88;;;11.31;42.13
5651;BME280;40241;52.684;9.758;2023-06-04T02:19:06;101929.47;;;11.25;42.34
5651;BME280;40241;52.684;9.758;2023-06-04T02:21:32;101928.88;;;11.21;42.44
5651;BME280;40241;52.684;9.758;2023-06-04T02:23:58;101933.50;;;11.15;42.38
5651;BME280;40241;52.684;9.758;2023-06-04T02:26:24;101936.13;;;11.09;42.47
5651;BME280;40241;52.684;9.758;2023-06-04T02:28:50;101925.44;;;11.02;42.53
5651;BME280;40241;52.684;9.758;2023-06-04T02:31:15;101925.28;;;10.97;42.68
5651;BME280;40241;52.684;9.758;2023-06-04T02:33:41;101922.13;;;10.89;42.58
5651;BME280;40241;52.684;9.758;2023-06-04T02:36:06;101947.50;;;10.84;42.60
5651;BME280;40241;52.684;9.758;2023-06-04T02:38:34;101931.75;;;10.85;42.74
5651;BME280;40241;52.684;9.758;2023-06-04T02:40:59;101925.19;;;10.82;42.73
5651;BME280;40241;52.684;9.758;2023-06-04T02:43:24;101931.31;;;10.77;42.82
5651;BME280;40241;52.684;9.758;2023-06-04T02:45:50;101932.53;;;10.76;42.79
5651;BME280;40241;52.684;9.758;2023-06-04T02:48:15;101929.19;;;10.72;42.87
5651;BME280;40241;52.684;9.758;2023-06-04T02:50:40;101929.50;;;10.65;42.95
5651;BME280;40241;52.684;9.758;2023-06-04T02:53:07;101926.28;;;10.57;43.02
5651;BME280;40241;52.684;9.758;2023-06-04T02:55:32;101936.69;;;10.53;43.08
5651;BME280;40241;52.684;9.758;2023-06-04T02:57:59;101937.78;;;10.47;43.27
5651;BME280;40241;52.684;9.758;2023-06-04T03:00:24;101940.41;;;10.41;43.32
5651;BME280;40241;52.684;9.758;2023-06-04T03:02:50;101943.16;;;10.41;43.30
5651;BME280;40241;52.684;9.758;2023-06-04T03:05:16;101951.41;;;10.41;43.43
5651;BME280;40241;52.684;9.758;2023-06-04T03:07:43;101960.88;;;10.40;43.80
5651;BME280;40241;52.684;9.758;2023-06-04T03:10:10;101952.13;;;10.42;43.64
5651;BME280;40241;52.684;9.758;2023-06-04T03:12:36;101951.84;;;10.40;43.59
5651;BME280;40241;52.684;9.758;2023-06-04T03:15:02;101949.25;;;10.36;43.59
5651;BME280;40241;52.684;9.758;2023-06-04T03:17:28;101951.53;;;10.38;43.55
5651;BME280;40241;52.684;9.758;2023-06-04T03:19:53;101946.81;;;10.38;43.57
5651;BME280;40241;52.684;9.758;2023-06-04T03:22:21;101952.31;;;10.38;43.59
5651;BME280;40241;52.684;9.758;2023-06-04T03:24:46;101954.75;;;10.36;43.54
5651;BME280;40241;52.684;9.758;2023-06-04T03:27:12;101943.91;;;10.33;43.50
5651;BME280;40241;52.684;9.758;2023-06-04T03:29:37;101947.09;;;10.31;43.72
5651;BME280;40241;52.684;9.758;2023-06-04T03:32:03;101939.63;;;10.23;43.72
5651;BME280;40241;52.684;9.758;2023-06-04T03:34:29;101943.13;;;10.23;43.94
5651;BME280;40241;52.684;9.758;2023-06-04T03:36:56;101950.47;;;10.26;43.90
5651;BME280;40241;52.684;9.758;2023-06-04T03:39:22;101952.00;;;10.27;43.90
5651;BME280;40241;52.684;9.758;2023-06-04T03:41:48;101952.31;;;10.29;43.80
5651;BME280;40241;52.684;9.758;2023-06-04T03:44:14;101950.78;;;10.28;43.97
5651;BME280;40241;52.684;9.758;2023-06-04T03:46:41;101951.53;;;10.29;43.92
5651;BME280;40241;52.684;9.758;2023-06-04T03:49:06;101955.06;;;10.29;43.98
5651;BME280;40241;52.684;9.758;2023-06-04T03:51:31;101959.47;;;10.27;44.01
5651;BME280;40241;52.684;9.758;2023-06-04T03:53:58;101951.22;;;10.27;44.07
5651;BME280;40241;52.684;9.758;2023-06-04T03:56:24;101956.00;;;10.26;44.04
5651;BME280;40241;52.684;9.758;2023-06-04T03:58:49;101946.66;;;10.24;44.04
5651;BME280;40241;52.684;9.758;2023-06-04T04:01:15;101942.66;;;10.25;44.15
5651;BME280;40241;52.684;9.758;2023-06-04T04:03:42;101946.19;;;10.25;44.17
5651;BME280;40241;52.684;9.758;2023-06-04T04:06:09;101946.19;;;10.25;44.32
5651;BME280;40241;52.684;9.758;2023-06-04T04:08:35;101954.59;;;10.22;44.46
5651;BME280;40241;52.684;9.758;2023-06-04T04:11:00;101954.91;;;10.24;44.40
5651;BME280;40241;52.684;9.758;2023-06-04T04:13:26;101956.00;;;10.26;44.27
5651;BME280;40241;52.684;9.758;2023-06-04T04:15:51;101956.00;;;10.26;44.45
5651;BME280;40241;52.684;9.758;2023-06-04T04:18:21;101952.00;;;10.27;44.42
5651;BME280;40241;52.684;9.758;2023-06-04T04:20:46;101954.75;;;10.27;44.42
5651;BME280;40241;52.684;9.758;2023-06-04T04:23:12;101951.88;;;10.31;44.60
5651;BME280;40241;52.684;9.758;2023-06-04T04:25:38;101948.19;;;10.34;44.78
5651;BME280;40241;52.684;9.758;2023-06-04T04:28:04;101948.47;;;10.36;44.88
5651;BME280;40241;52.684;9.758;2023-06-04T04:30:35;101947.41;;;10.42;44.96
5651;BME280;40241;52.684;9.758;2023-06-04T04:33:01;101952.31;;;10.47;44.98
5651;BME280;40241;52.684;9.758;2023-06-04T04:35:26;101963.00;;;10.54;44.87
5651;BME280;40241;52.684;9.758;2023-06-04T04:37:53;101959.91;;;10.62;44.83
5651;BME280;40241;52.684;9.758;2023-06-04T04:40:19;101948.78;;;10.65;44.87
5651;BME280;40241;52.684;9.758;2023-06-04T04:42:44;101947.09;;;10.68;44.73
5651;BME280;40241;52.684;9.758;2023-06-04T04:45:10;101945.25;;;10.74;44.90
5651;BME280;40241;52.684;9.758;2023-06-04T04:47:35;101943.56;;;10.76;44.90
5651;BME280;40241;52.684;9.758;2023-06-04T04:50:01;101942.91;;;10.81;45.00
5651;BME280;40241;52.684;9.758;2023-06-04T04:52:26;101951.03;;;10.85;45.07
5651;BME280;40241;52.684;9.758;2023-06-04T04:54:51;101953.91;;;10.90;45.03
5651;BME280;40241;52.684;9.758;2023-06-04T04:57:21;101951.31;;;10.96;45.01
5651;BME280;40241;52.684;9.758;2023-06-04T04:59:47;101957.13;;;10.98;45.15
5651;BME280;40241;52.684;9.758;2023-06-04T05:02:12;101957.25;;;11.03;45.16
5651;BME280;40241;52.684;9.758;2023-06-04T05:04:37;101953.09;;;11.08;45.24
5651;BME280;40241;52.684;9.758;2023-06-04T05:07:03;101948.47;;;11.14;45.27
5651;BME280;40241;52.684;9.758;2023-06-04T05:09:28;101946.66;;;11.20;45.32
5651;BME280;40241;52.684;9.758;2023-06-04T05:11:53;101949.03;;;11.27;45.23
5651;BME280;40241;52.684;9.758;2023-06-04T05:14:18;101948.72;;;11.34;45.38
5651;BME280;40241;52.684;9.758;2023-06-04T05:16:44;101949.59;;;11.40;45.29
5651;BME280;40241;52.684;9.758;2023-06-04T05:19:09;101947.28;;;11.48;45.16
5651;BME280;40241;52.684;9.758;2023-06-04T05:21:36;101943.72;;;11.56;45.45
5651;BME280;40241;52.684;9.758;2023-06-04T05:24:02;101960.97;;;11.66;45.40
5651;BME280;40241;52.684;9.758;2023-06-04T05:26:27;101950.69;;;11.75;45.35
5651;BME280;40241;52.684;9.758;2023-06-04T05:28:54;101951.88;;;11.83;45.32
5651;BME280;40241;52.684;9.758;2023-06-04T05:31:20;101962.38;;;11.94;45.51
5651;BME280;40241;52.684;9.758;2023-06-04T05:33:47;101958.31;;;12.04;45.66
5651;BME280;40241;52.684;9.758;2023-06-04T05:36:13;101953.78;;;12.16;45.61
5651;BME280;40241;52.684;9.758;2023-06-04T05:38:39;101954.31;;;12.29;45.59
5651;BME280;40241;52.684;9.758;2023-06-04T05:41:04;101965.06;;;12.41;45.77
5651;BME280;40241;52.684;9.758;2023-06-04T05:43:29;101961.75;;;12.52;45.65
5651;BME280;40241;52.684;9.758;2023-06-04T05:45:55;101956.44;;;12.63;45.73
5651;BME280;40241;52.684;9.758;2023-06-04T05:48:20;101958.91;;;12.75;45.94
5651;BME280;40241;52.684;9.758;2023-06-04T05:50:46;101960.94;;;12.90;45.80
5651;BME280;40241;52.684;9.758;2023-06-04T05:53:12;101958.16;;;13.04;45.78
5651;BME280;40241;52.684;9.758;2023-06-04T05:55:38;101957.44;;;13.18;45.93
5651;BME280;40241;52.684;9.758;2023-06-04T05:58:03;101965.22;;;13.34;45.77
5651;BME280;40241;52.684;9.758;2023-06-04T06:00:28;101956.34;;;13.45;45.91
5651;BME280;40241;52.684;9.758;2023-06-04T06:02:54;101961.34;;;13.61;45.82
5651;BME280;40241;52.684;9.758;2023-06-04T06:05:20;101970.06;;;13.74;46.00
5651;BME280;40241;52.684;9.758;2023-06-04T06:07:46;101957.44;;;13.88;45.74
5651;BME280;40241;52.684;9.758;2023-06-04T06:10:12;101964.44;;;14.03;45.82
5651;BME280;40241;52.684;9.758;2023-06-04T06:12:38;101966.16;;;14.21;45.78
5651;BME280;40241;52.684;9.758;2023-06-04T06:15:04;101967.09;;;14.33;45.74
5651;BME280;40241;52.684;9.758;2023-06-04T06:17:30;101962.22;;;14.48;45.46
5651;BME280;40241;52.684;9.758;2023-06-04T06:19:56;101974.50;;;14.67;45.17
5651;BME280;40241;52.684;9.758;2023-06-04T06:22:22;101973.41;;;14.84;45.09
5651;BME280;40241;52.684;9.758;2023-06-04T06:24:47;101978.63;;;15.02;44.98
5651;BME280;40241;52.684;9.758;2023-06-04T06:27:16;101977.22;;;15.18;44.86
5651;BME280;40241;52.684;9.758;2023-06-04T06:29:42;101981.09;;;15.32;44.73
5651;BME280;40241;52.684;9.758;2023-06-04T06:32:09;101984.53;;;15.47;44.62
5651;BME280;40241;52.684;9.758;2023-06-04T06:34:34;101981.34;;;15.59;44.41
5651;BME280;40241;52.684;9.758;2023-06-04T06:37:00;101982.19;;;15.77;44.23
5651;BME280;40241;52.684;9.758;2023-06-04T06:39:25;101987.06;;;15.93;44.26
5651;BME280;40241;52.684;9.758;2023-06-04T06:41:51;101982.34;;;16.10;44.11
5651;BME280;40241;52.684;9.758;2023-06-04T06:44:17;101985.72;;;16.25;43.70
5651;BME280;40241;52.684;9.758;2023-06-04T06:46:42;101984.22;;;16.40;43.32
5651;BME280;40241;52.684;9.758;2023-06-04T06:49:07;101986.59;;;16.59;43.19
5651;BME280;40241;52.684;9.758;2023-06-04T06:51:33;101986.63;;;16.75;43.21
5651;BME280;40241;52.684;9.758;2023-06-04T06:53:58;101987.41;;;16.87;43.31
5651;BME280;40241;52.684;9.758;2023-06-04T06:56:24;101988.94;;;16.99;43.01
5651;BME280;40241;52.684;9.758;2023-06-04T06:58:50;101993.72;;;17.15;43.06
5651;BME280;40241;52.684;9.758;2023-06-04T07:01:16;101982.38;;;17.30;42.91
5651;BME280;40241;52.684;9.758;2023-06-04T07:03:41;101991.69;;;17.43;42.44
5651;BME280;40241;52.684;9.758;2023-06-04T07:06:07;101987.41;;;17.59;42.12
5651;BME280;40241;52.684;9.758;2023-06-04T07:08:32;101988.88;;;17.76;42.04
5651;BME280;40241;52.684;9.758;2023-06-04T07:10:58;101990.09;;;17.92;41.62
5651;BME280;40241;52.684;9.758;2023-06-04T07:13:24;101982.97;;;18.08;41.51
5651;BME280;40241;52.684;9.758;2023-06-04T07:15:50;101984.66;;;18.22;41.49
5651;BME280;40241;52.684;9.758;2023-06-04T07:18:15;101993.50;;;18.37;41.50
5651;BME280;40241;52.684;9.758;2023-06-04T07:20:40;101985.84;;;18.43;40.99
5651;BME280;40241;52.684;9.758;2023-06-04T07:23:06;101989.88;;;18.53;41.00
5651;BME280;40241;52.684;9.758;2023-06-04T07:25:32;101987.00;;;18.64;40.80
5651;BME280;40241;52.684;9.758;2023-06-04T07:27:57;101994.28;;;18.78;40.45
5651;BME280;40241;52.684;9.758;2023-06-04T07:30:26;101992.91;;;18.90;40.34
5651;BME280;40241;52.684;9.758;2023-06-04T07:32:51;101985.47;;;19.04;40.37
5651;BME280;40241;52.684;9.758;2023-06-04T07:35:17;101983.63;;;19.12;39.45
5651;BME280;40241;52.684;9.758;2023-06-04T07:37:42;101989.09;;;19.23;39.25
5651;BME280;40241;52.684;9.758;2023-06-04T07:40:13;101988.50;;;19.35;38.78
5651;BME280;40241;52.684;9.758;2023-06-04T07:42:38;101997.78;;;19.49;38.48
5651;BME280;40241;52.684;9.758;2023-06-04T07:45:05;101986.50;;;19.60;38.11
5651;BME280;40241;52.684;9.758;2023-06-04T07:47:30;101989.94;;;19.72;37.98
5651;BME280;40241;52.684;9.758;2023-06-04T07:49:55;101992.38;;;19.81;37.60
5651;BME280;40241;52.684;9.758;2023-06-04T07:52:21;101990.75;;;19.91;37.26
5651;BME280;40241;52.684;9.758;2023-06-04T07:54:46;101988.06;;;20.04;37.24
5651;BME280;40241;52.684;9.758;2023-06-04T07:57:12;101982.31;;;20.15;37.09
5651;BME280;40241;52.684;9.758;2023-06-04T07:59:37;101989.53;;;20.29;36.84
5651;BME280;40241;52.684;9.758;2023-06-04T08:02:03;101993.75;;;20.36;36.49
5651;BME280;40241;52.684;9.758;2023-06-04T08:04:28;101998.00;;;20.42;36.31
5651;BME280;40241;52.684;9.758;2023-06-04T08:06:54;101988.72;;;20.53;36.13
5651;BME280;40241;52.684;9.758;2023-06-04T08:09:20;101983.94;;;20.66;35.91
5651;BME280;40241;52.684;9.758;2023-06-04T08:11:45;101991.94;;;20.75;35.59
5651;BME280;40241;52.684;9.758;2023-06-04T08:14:11;101993.91;;;20.80;35.59
5651;BME280;40241;52.684;9.758;2023-06-04T08:16:37;101999.31;;;20.91;35.39
5651;BME280;40241;52.684;9.758;2023-06-04T08:19:03;102000.22;;;21.00;35.15
5651;BME280;40241;52.684;9.758;2023-06-04T08:21:28;101989.94;;;21.08;35.17
5651;BME280;40241;52.684;9.758;2023-06-04T08:23:54;101992.53;;;21.19;34.91
5651;BME280;40241;52.684;9.758;2023-06-04T08:26:20;101997.53;;;21.26;34.92
5651;BME280;40241;52.684;9.758;2023-06-04T08:28:49;102005.72;;;21.37;32.94
5651;BME280;40241;52.684;9.758;2023-06-04T08:31:14;102014.03;;;21.42;33.94
5651;BME280;40241;52.684;9.758;2023-06-04T08:33:40;102010.81;;;21.51;33.83
5651;BME280;40241;52.684;9.758;2023-06-04T08:36:06;102006.19;;;21.67;33.89
5651;BME280;40241;52.684;9.758;2023-06-04T08:38:31;102017.13;;;21.84;33.72
5651;BME280;40241;52.684;9.758;2023-06-04T08:41:02;102012.38;;;21.92;31.63
5651;BME280;40241;52.684;9.758;2023-06-04T08:43:32;102011.31;;;21.95;33.02
5651;BME280;40241;52.684;9.758;2023-06-04T08:45:59;102014.22;;;22.02;33.21
5651;BME280;40241;52.684;9.758;2023-06-04T08:48:28;102002.97;;;22.15;33.26
5651;BME280;40241;52.684;9.758;2023-06-04T08:50:57;102008.47;;;22.34;32.94
5651;BME280;40241;52.684;9.758;2023-06-04T08:53:24;102006.50;;;22.42;32.76
5651;BME280;40241;52.684;9.758;2023-06-04T08:55:50;102000.66;;;22.53;32.85
5651;BME280;40241;52.684;9.758;2023-06-04T08:58:18;102013.91;;;22.66;32.80
5651;BME280;40241;52.684;9.758;2023-06-04T09:00:44;102011.50;;;22.70;32.53
5651;BME280;40241;52.684;9.758;2023-06-04T09:03:10;101998.75;;;22.82;32.32
5651;BME280;40241;52.684;9.758;2023-06-04T09:05:38;101995.88;;;22.95;32.10
5651;BME280;40241;52.684;9.758;2023-06-04T09:08:06;101996.78;;;23.10;32.01
5651;BME280;40241;52.684;9.758;2023-06-04T09:10:35;101991.81;;;23.24;32.10
5651;BME280;40241;52.684;9.758;2023-06-04T09:13:03;102001.78;;;23.25;30.92
5651;BME280;40241;52.684;9.758;2023-06-04T09:15:29;102003.41;;;23.21;31.20
5651;BME280;40241;52.684;9.758;2023-06-04T09:17:54;102009.19;;;23.36;31.26
5651;BME280;40241;52.684;9.758;2023-06-04T09:20:23;102000.66;;;23.49;30.87
5651;BME280;40241;52.684;9.758;2023-06-04T09:22:48;101997.06;;;23.69;31.04
5651;BME280;40241;52.684;9.758;2023-06-04T09:25:22;102009.16;;;23.84;29.83
5651;BME280;40241;52.684;9.758;2023-06-04T09:27:50;102005.09;;;23.93;30.55
5651;BME280;40241;52.684;9.758;2023-06-04T09:30:15;102005.56;;;24.05;30.40
5651;BME280;40241;52.684;9.758;2023-06-04T09:32:41;102002.50;;;24.03;29.97
5651;BME280;40241;52.684;9.758;2023-06-04T09:35:18;102001.06;;;24.09;28.05
5651;BME280;40241;52.684;9.758;2023-06-04T09:37:54;101995.88;;;24.21;28.43
5651;BME280;40241;52.684;9.758;2023-06-04T09:40:20;102005.09;;;24.29;29.65
5651;BME280;40241;52.684;9.758;2023-06-04T09:42:47;102004.56;;;24.38;29.33
5651;BME280;40241;52.684;9.758;2023-06-04T09:45:30;101998.78;;;24.51;28.42
5651;BME280;40241;52.684;9.758;2023-06-04T09:47:57;101995.81;;;24.64;29.38
5651;BME280;40241;52.684;9.758;2023-06-04T09:50:27;102004.13;;;24.77;28.68
5651;BME280;40241;52.684;9.758;2023-06-04T09:52:54;102003.53;;;24.71;29.14
5651;BME280;40241;52.684;9.758;2023-06-04T09:55:19;101990.84;;;24.85;29.31
5651;BME280;40241;52.684;9.758;2023-06-04T09:57:52;101998.56;;;25.00;27.71
5651;BME280;40241;52.684;9.758;2023-06-04T10:00:19;101990.66;;;24.98;28.69
5651;BME280;40241;52.684;9.758;2023-06-04T10:02:51;101989.34;;;24.99;28.45
5651;BME280;40241;52.684;9.758;2023-06-04T10:05:21;101995.94;;;25.17;28.57
5651;BME280;40241;52.684;9.758;2023-06-04T10:07:50;101997.63;;;25.20;27.75
5651;BME280;40241;52.684;9.758;2023-06-04T10:10:20;101995.75;;;25.30;27.98
5651;BME280;40241;52.684;9.758;2023-06-04T10:12:50;101998.19;;;25.41;27.59
5651;BME280;40241;52.684;9.758;2023-06-04T10:15:17;101992.56;;;25.49;28.28
5651;BME280;40241;52.684;9.758;2023-06-04T10:17:42;101989.38;;;25.52;27.51
5651;BME280;40241;52.684;9.758;2023-06-04T10:20:08;101984.66;;;25.47;27.77
5651;BME280;40241;52.684;9.758;2023-06-04T10:22:35;101990.69;;;25.44;27.35
5651;BME280;40241;52.684;9.758;2023-06-04T10:25:01;101994.59;;;25.41;27.32
5651;BME280;40241;52.684;9.758;2023-06-04T10:27:27;101993.28;;;25.42;27.53
5651;BME280;40241;52.684;9.758;2023-06-04T10:29:53;101988.06;;;25.46;27.51
5651;BME280;40241;52.684;9.758;2023-06-04T10:32:19;101986.94;;;25.49;27.48
5651;BME280;40241;52.684;9.758;2023-06-04T10:34:46;101993.31;;;25.57;27.48
5651;BME280;40241;52.684;9.758;2023-06-04T10:37:21;102000.03;;;25.69;26.42
5651;BME280;40241;52.684;9.758;2023-06-04T10:39:51;101986.47;;;25.82;26.80
5651;BME280;40241;52.684;9.758;2023-06-04T10:42:17;101982.69;;;25.95;27.33
5651;BME280;40241;52.684;9.758;2023-06-04T10:44:47;101988.88;;;25.93;26.90
5651;BME280;40241;52.684;9.758;2023-06-04T10:49:44;101988.47;;;26.04;27.19
5651;BME280;40241;52.684;9.758;2023-06-04T10:52:13;101983.03;;;26.14;26.89
5651;BME280;40241;52.684;9.758;2023-06-04T10:54:38;101969.13;;;26.09;27.05
5651;BME280;40241;52.684;9.758;2023-06-04T10:57:14;101976.78;;;26.23;26.32
5651;BME280;40241;52.684;9.758;2023-06-04T10:59:40;101983.72;;;26.30;27.02
5651;BME280;40241;52.684;9.758;2023-06-04T11:02:06;101988.91;;;26.41;26.98
5651;BME280;40241;52.684;9.758;2023-06-04T11:04:32;101980.59;;;26.50;26.77
5651;BME280;40241;52.684;9.758;2023-06-04T11:07:04;101986.41;;;26.52;26.19
5651;BME280;40241;52.684;9.758;2023-06-04T11:09:34;101984.78;;;26.42;26.24
5651;BME280;40241;52.684;9.758;2023-06-04T11:12:01;101974.09;;;26.33;26.56
5651;BME280;40241;52.684;9.758;2023-06-04T11:14:26;101980.25;;;26.39;26.65
5651;BME280;40241;52.684;9.758;2023-06-04T11:16:52;101978.13;;;26.54;26.40
5651;BME280;40241;52.684;9.758;2023-06-04T11:19:17;101976.13;;;26.40;26.04
5651;BME280;40241;52.684;9.758;2023-06-04T11:21:44;101975.03;;;26.28;25.65
5651;BME280;40241;52.684;9.758;2023-06-04T11:24:11;101974.56;;;26.14;26.05
5651;BME280;40241;52.684;9.758;2023-06-04T11:26:37;101969.28;;;26.18;25.81
5651;BME280;40241;52.684;9.758;2023-06-04T11:29:06;101968.75;;;26.12;25.60
5651;BME280;40241;52.684;9.758;2023-06-04T11:31:45;101966.63;;;26.20;24.44
5651;BME280;40241;52.684;9.758;2023-06-04T11:34:28;101958.00;;;26.18;25.34
5651;BME280;40241;52.684;9.758;2023-06-04T11:36:54;101960.16;;;26.35;25.80
5651;BME280;40241;52.684;9.758;2023-06-04T11:39:20;101956.72;;;26.44;25.70
5651;BME280;40241;52.684;9.758;2023-06-04T11:41:46;101955.75;;;26.49;25.58
5651;BME280;40241;52.684;9.758;2023-06-04T11:44:12;101955.59;;;26.47;25.57
5651;BME280;40241;52.684;9.758;2023-06-04T11:46:42;101947.06;;;26.54;25.43
5651;BME280;40241;52.684;9.758;2023-06-04T11:49:17;101949.31;;;26.56;25.37
5651;BME280;40241;52.684;9.758;2023-06-04T11:51:50;101941.88;;;26.76;25.25
5651;BME280;40241;52.684;9.758;2023-06-04T11:54:16;101933.03;;;26.96;25.60
5651;BME280;40241;52.684;9.758;2023-06-04T11:56:43;101934.75;;;27.16;25.62
5651;BME280;40241;52.684;9.758;2023-06-04T11:59:11;101928.78;;;27.29;25.12
5651;BME280;40241;52.684;9.758;2023-06-04T12:01:39;101926.81;;;27.39;25.29
5651;BME280;40241;52.684;9.758;2023-06-04T12:04:15;101927.91;;;27.44;24.30
5651;BME280;40241;52.684;9.758;2023-06-04T12:06:58;101926.09;;;27.39;24.62
5651;BME280;40241;52.684;9.758;2023-06-04T12:09:29;101943.06;;;27.14;24.89
5651;BME280;40241;52.684;9.758;2023-06-04T12:12:04;101935.06;;;27.03;25.04
5651;BME280;40241;52.684;9.758;2023-06-04T12:14:30;101929.09;;;27.16;25.17
5651;BME280;40241;52.684;9.758;2023-06-04T12:16:56;101928.94;;;27.14;24.86
5651;BME280;40241;52.684;9.758;2023-06-04T12:19:22;101933.00;;;27.21;24.83
5651;BME280;40241;52.684;9.758;2023-06-04T12:22:07;101938.25;;;27.24;24.60
5651;BME280;40241;52.684;9.758;2023-06-04T12:24:35;101937.16;;;27.20;24.62
5651;BME280;40241;52.684;9.758;2023-06-04T12:27:11;101930.78;;;27.19;24.84
5651;BME280;40241;52.684;9.758;2023-06-04T12:29:36;101928.19;;;27.31;24.88
5651;BME280;40241;52.684;9.758;2023-06-04T12:32:09;101934.28;;;27.27;24.45
5651;BME280;40241;52.684;9.758;2023-06-04T12:34:37;101919.88;;;27.16;24.65
5651;BME280;40241;52.684;9.758;2023-06-04T12:37:03;101920.19;;;27.20;24.60
5651;BME280;40241;52.684;9.758;2023-06-04T12:39:31;101922.53;;;27.14;24.42
5651;BME280;40241;52.684;9.758;2023-06-04T12:41:57;101926.06;;;26.97;24.34
5651;BME280;40241;52.684;9.758;2023-06-04T12:44:22;101920.50;;;27.07;24.63
5651;BME280;40241;52.684;9.758;2023-06-04T12:46:47;101922.63;;;27.23;24.69
5651;BME280;40241;52.684;9.758;2023-06-04T12:49:13;101921.78;;;27.30;24.36
5651;BME280;40241;52.684;9.758;2023-06-04T12:51:38;101912.97;;;27.26;24.36
5651;BME280;40241;52.684;9.758;2023-06-04T12:54:04;101915.31;;;27.20;24.34
5651;BME280;40241;52.684;9.758;2023-06-04T12:56:30;101911.56;;;27.18;24.60
5651;BME280;40241;52.684;9.758;2023-06-04T12:58:55;101919.56;;;27.29;24.57
5651;BME280;40241;52.684;9.758;2023-06-04T13:01:21;101911.81;;;27.29;24.48
5651;BME280;40241;52.684;9.758;2023-06-04T13:03:46;101911.22;;;27.31;24.35
5651;BME280;40241;52.684;9.758;2023-06-04T13:06:12;101912.91;;;27.34;24.54